Flight Track Log - Related Links

Times and Time Zones

All times are in EDT time to prevent confusion due to time zone crossing. See the CCA4488 flight status page for this flight to view local times or setup timezone preferences in your user account.

Time Position Orientation Groundspeed Altitude Reporting Facility
EDT Latitude Longitude Course Direction KTS MPH feet Rate Location/Type
Fri 08:20:14 PM 32.5610 104.2460 173° South 462 532 24,600  Level FlightAware ADS-B
Fri 08:20:46 PM 32.4940 104.2500 177° South 464 534 24,600  Level FlightAware ADS-B
Fri 08:21:22 PM 32.4170 104.2560 176° South 466 536 24,600  Level FlightAware ADS-B
Fri 08:21:58 PM 32.3390 104.2610 177° South 465 535 24,600  Level FlightAware ADS-B
Fri 08:22:34 PM 32.2630 104.2650 177° South 466 536 24,600  Level FlightAware ADS-B
Fri 08:23:11 PM 32.1840 104.2690 178° South 467 537 24,600  Level FlightAware ADS-B
Fri 08:23:43 PM 32.1130 104.2730 177° South 467 537 24,600  Level FlightAware ADS-B
Fri 08:24:19 PM 32.0350 104.2770 178° South 466 536 24,600  Level FlightAware ADS-B
Fri 08:24:55 PM 31.9590 104.2800 178° South 461 531 24,600  Level FlightAware ADS-B
Fri 08:25:28 PM 31.8870 104.2840 177° South 462 532 24,600  Level FlightAware ADS-B
Fri 08:26:04 PM 31.8100 104.2880 177° South 462 532 24,600  Level FlightAware ADS-B
Fri 08:26:40 PM 31.7320 104.2920 178° South 463 533 24,600  Level FlightAware ADS-B
Fri 08:27:13 PM 31.6630 104.2950 178° South 464 534 24,600 -88 Level FlightAware ADS-B
Fri 08:27:48 PM 31.5860 104.2990 177° South 464 534 24,500 -507 Descending FlightAware ADS-B
Fri 08:28:24 PM 31.5100 104.3030 177° South 458 527 24,000 -943 Descending FlightAware ADS-B
Fri 08:28:58 PM 31.4360 104.3060 178° South 454 522 23,400 -1,217 Descending FlightAware ADS-B
Fri 08:29:33 PM 31.3650 104.3100 177° South 449 517 22,600 -1,690 Descending FlightAware ADS-B
Fri 08:30:09 PM 31.2900 104.3130 178° South 443 510 21,400 -1,789 Descending FlightAware ADS-B
Fri 08:30:30 PM 31.2470 104.3100 183° South 428 493 20,900 -1,297 Descending FlightAware ADS-B
Fri 08:30:46 PM 31.2170 104.3000 196° South 420 483 20,600 -1,059 Descending FlightAware ADS-B
Fri 08:31:04 PM 31.1870 104.2790 211° Southwest 415 478 20,300 -964 Descending FlightAware ADS-B
Fri 08:31:42 PM 31.1330 104.2210 223° Southwest 418 481 19,700 -1,043 Descending FlightAware ADS-B
Fri 08:32:13 PM 31.0900 104.1740 223° Southwest 417 480 19,100 -1,324 Descending FlightAware ADS-B
Fri 08:32:50 PM 31.0380 104.1160 224° Southwest 416 479 18,200 -1,500 Descending FlightAware ADS-B
Fri 08:33:25 PM 30.9900 104.0630 223° Southwest 407 468 17,300 -1,478 Descending FlightAware ADS-B
Fri 08:33:59 PM 30.9440 104.0130 223° Southwest 401 461 16,500 -1,457 Descending FlightAware ADS-B
Fri 08:34:35 PM 30.8950 103.9590 223° Southwest 400 460 15,600 -1,500 Descending FlightAware ADS-B
Fri 08:35:11 PM 30.8480 103.9060 224° Southwest 388 447 14,700 -1,522 Descending FlightAware ADS-B
Fri 08:35:42 PM 30.8070 103.8600 224° Southwest 384 442 13,900 -1,500 Descending FlightAware ADS-B
Fri 08:36:19 PM 30.7600 103.8090 223° Southwest 382 440 13,000 -1,378 Descending FlightAware ADS-B
Fri 08:36:56 PM 30.7130 103.7580 223° Southwest 357 411 12,200 -1,224 Descending FlightAware ADS-B
Fri 08:37:08 PM 30.6980 103.7430 221° Southwest 348 400 12,000 -818 Descending FlightAware ADS-B
Fri 08:37:18 PM 30.6840 103.7360 203° Southwest 342 394 11,900 -818 Descending FlightAware ADS-B
Fri 08:37:30 PM 30.6660 103.7320 191° South 324 373 11,700 -1,592 Descending FlightAware ADS-B
Fri 08:38:07 PM 30.6140 103.7340 178° South 300 345 10,600 -2,036 Descending FlightAware ADS-B
Fri 08:38:26 PM 30.5870 103.7340 180° South 297 342 9,800 -2,488 Descending FlightAware ADS-B
Fri 08:38:48 PM 30.5570 103.7350 178° South 292 336 8,900 -2,571 Descending FlightAware ADS-B
Fri 08:39:08 PM 30.5290 103.7350 180° South 291 335 8,000 -2,550 Descending FlightAware ADS-B
Fri 08:39:28 PM 30.5030 103.7350 180° South 288 331 7,200 -2,471 Descending FlightAware ADS-B
Fri 08:39:42 PM 30.4840 103.7360 177° South 286 329 6,600 -1,886 Descending FlightAware ADS-B
Fri 08:40:03 PM 30.4570 103.7370 178° South 274 315 6,100 -1,143 Descending FlightAware ADS-B
Fri 08:40:24 PM 30.4320 103.7380 178° South 252 290 5,800 -486 Descending FlightAware ADS-B
Fri 08:40:40 PM 30.4130 103.7380 180° South 239 275 5,800  Level FlightAware ADS-B
Fri 08:40:59 PM 30.3940 103.7390 177° South 222 255 5,800  Level FlightAware ADS-B
Fri 08:41:20 PM 30.3720 103.7400 178° South 212 244 5,800  Level FlightAware ADS-B
Fri 08:41:36 PM 30.3570 103.7400 180° South 211 243 5,800 -333 Level FlightAware ADS-B
Fri 08:41:56 PM 30.3370 103.7410 178° South 211 243 5,600 -750 Descending FlightAware ADS-B
Fri 08:42:08 PM 30.3250 103.7410 180° South 209 241 5,400 -900 Descending FlightAware ADS-B
Fri 08:42:16 PM 30.3180 103.7440 160° South 208 239 5,300 -750 Descending FlightAware ADS-B
Fri 08:42:24 PM 30.3110 103.7490 148° Southeast 206 237 5,200 -750 Descending FlightAware ADS-B
Fri 08:42:32 PM 30.3070 103.7560 123° Southeast 204 235 5,100 -857 Descending FlightAware ADS-B
Fri 08:42:52 PM 30.3000 103.7760 112° Southeast 202 232 4,800 -732 Descending FlightAware ADS-B
Fri 08:43:13 PM 30.2940 103.7960 109° East 200 230 4,600 -643 Descending FlightAware ADS-B
Fri 08:43:20 PM 30.2920 103.8040 106° East 200 230 4,500 -1,091 Descending FlightAware ADS-B
Fri 08:43:24 PM 30.2910 103.8080 106° East 202 232 4,400 -828 Descending FlightAware ADS-B
Fri 08:43:49 PM 30.3020 103.8310 61° Northeast 196 226 4,100 -727 Descending FlightAware ADS-B
Fri 08:43:57 PM 30.3070 103.8360 41° Northeast 195 224 4,000 -632 Descending FlightAware ADS-B
Fri 08:44:08 PM 30.3170 103.8420 27° Northeast 194 223 3,900 -387 Descending FlightAware ADS-B
Fri 08:44:28 PM 30.3320 103.8500 25° Northeast 201 231 3,800 -136 Descending FlightAware ADS-B
Fri 08:44:52 PM 30.3540 103.8600 21° North 195 224 3,800  Level FlightAware ADS-B
Fri 08:45:12 PM 30.3700 103.8670 21° North 195 224 3,800  Level FlightAware ADS-B
Fri 08:45:32 PM 30.3870 103.8750 22° Northeast 192 221 3,800  Level FlightAware ADS-B
Fri 08:45:48 PM 30.4000 103.8810 22° Northeast 175 201 3,800 -167 Level FlightAware ADS-B
Fri 08:46:08 PM 30.4140 103.8880 23° Northeast 158 182 3,700 -450 Descending FlightAware ADS-B
Fri 08:46:28 PM 30.4270 103.8940 22° Northeast 148 170 3,500 -750 Descending FlightAware ADS-B
Fri 08:46:48 PM 30.4400 103.9000 22° Northeast 140 161 3,200 -818 Descending FlightAware ADS-B
Fri 08:47:12 PM 30.4540 103.9060 20° North 135 155 2,900 -682 Descending FlightAware ADS-B
Fri 08:47:32 PM 30.4650 103.9110 21° North 137 158 2,700 -600 Descending FlightAware ADS-B
Fri 08:47:52 PM 30.4780 103.9170 22° Northeast 136 157 2,500 -750 Descending FlightAware ADS-B
Fri 08:48:12 PM 30.4890 103.9220 21° North 135 155 2,200 -714 Descending FlightAware ADS-B
Fri 08:48:34 PM 30.5020 103.9290 25° Northeast 135 155 2,000 -652 Descending FlightAware ADS-B
Fri 08:48:58 PM 30.5160 103.9350 20° North 134 154 1,700 -421 Descending FlightAware ADS-B
Fri 08:49:31 PM 30.5330 103.9430 22° Northeast 134 154 1,600 -182 Descending FlightAware ADS-B

Login

Don't have an account? Register now (free) for customized features, flight alerts, and more!